createdAt,value
2018-04-18T00:00:31.173Z,1023.72
2018-04-18T00:01:31.174Z,1023.76
2018-04-18T00:02:31.167Z,1023.78
2018-04-18T00:03:31.165Z,1023.82
2018-04-18T00:04:31.161Z,1023.79
2018-04-18T00:05:31.162Z,1023.85
2018-04-18T00:06:31.159Z,1023.78
2018-04-18T00:07:31.151Z,1023.84
2018-04-18T00:08:31.150Z,1023.82
2018-04-18T00:09:31.146Z,1023.82
2018-04-18T00:10:31.142Z,1023.86
2018-04-18T00:11:31.139Z,1023.80
2018-04-18T00:12:31.136Z,1023.83
2018-04-18T00:13:31.133Z,1023.81
2018-04-18T00:14:31.130Z,1023.83
2018-04-18T00:15:31.128Z,1023.86
2018-04-18T00:16:31.125Z,1023.85
2018-04-18T00:17:31.124Z,1023.83
2018-04-18T00:18:31.121Z,1023.83
2018-04-18T00:19:31.114Z,1023.84
2018-04-18T00:20:31.112Z,1023.80
2018-04-18T00:21:31.106Z,1023.81
2018-04-18T00:22:31.104Z,1023.77
2018-04-18T00:23:31.104Z,1023.84
2018-04-18T00:24:31.102Z,1023.82
2018-04-18T00:25:31.095Z,1023.80
2018-04-18T00:26:31.091Z,1023.88
2018-04-18T00:27:31.089Z,1023.85
2018-04-18T00:28:31.086Z,1023.87
2018-04-18T00:29:31.081Z,1023.86
2018-04-18T00:30:31.077Z,1023.88
2018-04-18T00:31:31.076Z,1023.96
2018-04-18T00:32:31.071Z,1023.96
2018-04-18T00:33:31.068Z,1023.92
2018-04-18T00:34:31.063Z,1023.96
2018-04-18T00:35:31.064Z,1023.93
2018-04-18T00:36:31.061Z,1023.95
2018-04-18T00:37:31.057Z,1023.97
2018-04-18T00:38:31.054Z,1023.93
2018-04-18T00:39:31.047Z,1023.99
2018-04-18T00:40:31.044Z,1023.97
2018-04-18T00:41:31.041Z,1024.01
2018-04-18T00:42:31.037Z,1024.03
2018-04-18T00:43:31.037Z,1024.09
2018-04-18T00:44:31.031Z,1024.05
2018-04-18T00:45:31.033Z,1024.01
2018-04-18T00:46:31.029Z,1024.05
2018-04-18T00:47:31.019Z,1024.08
2018-04-18T00:48:31.017Z,1024.06
2018-04-18T00:49:31.020Z,1024.07
2018-04-18T00:50:31.014Z,1024.08
2018-04-18T00:51:31.004Z,1024.08
2018-04-18T00:52:31.004Z,1024.11
2018-04-18T00:53:30.998Z,1024.11
2018-04-18T00:54:30.995Z,1024.08
2018-04-18T00:55:30.994Z,1024.09
2018-04-18T00:56:30.990Z,1024.09
2018-04-18T00:57:30.983Z,1024.12
2018-04-18T00:58:30.979Z,1024.14
2018-04-18T00:59:30.975Z,1024.15
2018-04-18T01:00:30.972Z,1024.14
2018-04-18T01:01:30.969Z,1024.15
2018-04-18T01:02:30.964Z,1024.15
2018-04-18T01:03:30.961Z,1024.15
2018-04-18T01:04:30.958Z,1024.12
2018-04-18T01:05:30.953Z,1024.15
2018-04-18T01:06:30.948Z,1024.15
2018-04-18T01:07:30.949Z,1024.12
2018-04-18T01:08:30.947Z,1024.19
2018-04-18T01:09:30.937Z,1024.18
2018-04-18T01:10:30.933Z,1024.20
2018-04-18T01:11:30.933Z,1024.19
2018-04-18T01:12:30.926Z,1024.21
2018-04-18T01:13:30.921Z,1024.15
2018-04-18T01:14:30.918Z,1024.24
2018-04-18T01:15:30.917Z,1024.25
2018-04-18T01:16:30.914Z,1024.25
2018-04-18T01:17:30.906Z,1024.28
2018-04-18T01:18:30.901Z,1024.27
2018-04-18T01:19:30.902Z,1024.24
2018-04-18T01:20:30.897Z,1024.28
2018-04-18T01:21:30.889Z,1024.28
2018-04-18T01:22:30.890Z,1024.29
2018-04-18T01:23:30.881Z,1024.26
2018-04-18T01:24:30.879Z,1024.30
2018-04-18T01:25:30.876Z,1024.27
2018-04-18T01:26:30.870Z,1024.32
2018-04-18T01:27:30.865Z,1024.33
2018-04-18T01:28:30.863Z,1024.30
2018-04-18T01:29:30.861Z,1024.33
2018-04-18T01:30:30.857Z,1024.31
2018-04-18T01:31:30.850Z,1024.32
2018-04-18T01:32:30.845Z,1024.29
2018-04-18T01:33:30.844Z,1024.34
2018-04-18T01:34:30.840Z,1024.29
2018-04-18T01:35:30.832Z,1024.29
2018-04-18T01:36:30.833Z,1024.29
2018-04-18T01:37:30.824Z,1024.29
2018-04-18T01:38:30.821Z,1024.32
2018-04-18T01:39:30.816Z,1024.33
2018-04-18T01:40:30.812Z,1024.30
2018-04-18T01:41:30.807Z,1024.30
2018-04-18T01:42:30.804Z,1024.33
2018-04-18T01:43:30.801Z,1024.33
2018-04-18T01:44:30.797Z,1024.34
2018-04-18T01:45:30.791Z,1024.33
2018-04-18T01:46:30.787Z,1024.37
2018-04-18T01:47:30.787Z,1024.36
2018-04-18T01:48:30.783Z,1024.38
2018-04-18T01:49:30.775Z,1024.37
2018-04-18T01:50:30.772Z,1024.41
2018-04-18T01:51:30.776Z,1024.39
2018-04-18T01:52:30.767Z,1024.40
2018-04-18T01:53:30.759Z,1024.39
2018-04-18T01:54:30.755Z,1024.43
2018-04-18T01:55:30.753Z,1024.43
2018-04-18T01:56:30.749Z,1024.39
2018-04-18T01:57:30.744Z,1024.42
2018-04-18T01:58:30.740Z,1024.42
2018-04-18T01:59:30.738Z,1024.43
2018-04-18T02:00:30.731Z,1024.46
2018-04-18T02:01:30.731Z,1024.40
2018-04-18T02:02:30.732Z,1024.47
2018-04-18T02:03:30.725Z,1024.43
2018-04-18T02:04:30.716Z,1024.48
2018-04-18T02:05:30.714Z,1024.48
2018-04-18T02:06:30.714Z,1024.50
2018-04-18T02:07:30.709Z,1024.51
2018-04-18T02:08:30.698Z,1024.48
2018-04-18T02:09:30.696Z,1024.49
2018-04-18T02:10:30.691Z,1024.51
2018-04-18T02:11:30.688Z,1024.51
2018-04-18T02:12:30.684Z,1024.48
2018-04-18T02:13:30.677Z,1024.50
2018-04-18T02:14:30.672Z,1024.51
2018-04-18T02:15:30.668Z,1024.56
2018-04-18T02:16:30.666Z,1024.57
2018-04-18T02:17:30.659Z,1024.61
2018-04-18T02:18:30.655Z,1024.56
2018-04-18T02:19:30.654Z,1024.59
2018-04-18T02:20:30.651Z,1024.54
2018-04-18T02:21:30.644Z,1024.53
2018-04-18T02:22:30.637Z,1024.58
2018-04-18T02:23:30.639Z,1024.56
2018-04-18T02:24:30.634Z,1024.59
2018-04-18T02:25:30.625Z,1024.57
2018-04-18T02:26:30.620Z,1024.58
2018-04-18T02:27:30.618Z,1024.61
2018-04-18T02:28:30.612Z,1024.57
2018-04-18T02:29:30.607Z,1024.60
2018-04-18T02:30:30.606Z,1024.61
2018-04-18T02:31:30.600Z,1024.61
2018-04-18T02:32:30.596Z,1024.66
2018-04-18T02:33:30.594Z,1024.64
2018-04-18T02:34:30.590Z,1024.61
2018-04-18T02:35:30.581Z,1024.62
2018-04-18T02:36:30.577Z,1024.63
2018-04-18T02:37:30.576Z,1024.66
2018-04-18T02:38:30.572Z,1024.68
2018-04-18T02:39:30.564Z,1024.73
2018-04-18T02:40:30.559Z,1024.67
2018-04-18T02:41:30.556Z,1024.70
2018-04-18T02:42:30.551Z,1024.72
2018-04-18T02:43:30.546Z,1024.73
2018-04-18T02:44:30.542Z,1024.77
2018-04-18T02:45:30.536Z,1024.74
2018-04-18T02:46:30.542Z,1024.78
2018-04-18T02:47:30.529Z,1024.76
2018-04-18T02:48:30.523Z,1024.82
2018-04-18T02:49:30.518Z,1024.82
2018-04-18T02:50:30.515Z,1024.84
2018-04-18T02:51:30.514Z,1024.85
2018-04-18T02:52:30.511Z,1024.87
2018-04-18T02:53:30.508Z,1024.93
2018-04-18T02:54:30.495Z,1024.92
2018-04-18T02:55:30.495Z,1024.93
2018-04-18T02:56:30.492Z,1024.99
2018-04-18T02:57:30.482Z,1024.98
2018-04-18T02:58:30.477Z,1024.98
2018-04-18T02:59:30.474Z,1025.01
2018-04-18T03:00:30.470Z,1025.02
2018-04-18T03:01:30.465Z,1025.02
2018-04-18T03:02:30.460Z,1025.01
2018-04-18T03:03:30.456Z,1025.00
2018-04-18T03:04:30.452Z,1024.99
2018-04-18T03:05:30.449Z,1025.02
2018-04-18T03:06:30.445Z,1025.01
2018-04-18T03:07:30.438Z,1025.01
2018-04-18T03:08:30.432Z,1025.03
2018-04-18T03:09:30.430Z,1025.08
2018-04-18T03:10:30.425Z,1025.07
2018-04-18T03:11:30.417Z,1025.06
2018-04-18T03:12:30.413Z,1025.03
2018-04-18T03:13:30.408Z,1025.06
2018-04-18T03:14:30.403Z,1025.07
2018-04-18T03:15:30.399Z,1025.04
2018-04-18T03:16:30.394Z,1025.09
2018-04-18T03:17:30.433Z,1025.07
2018-04-18T03:18:30.388Z,1025.07
2018-04-18T03:19:30.382Z,1025.11
2018-04-18T03:20:30.375Z,1025.10
2018-04-18T03:21:30.369Z,1025.10
2018-04-18T03:22:30.366Z,1025.12
2018-04-18T03:23:30.360Z,1025.11
2018-04-18T03:24:30.356Z,1025.11
2018-04-18T03:25:30.351Z,1025.14
2018-04-18T03:26:30.392Z,1025.14
2018-04-18T03:27:30.342Z,1025.13
2018-04-18T03:28:30.338Z,1025.12
2018-04-18T03:29:30.336Z,1025.19
2018-04-18T03:30:30.331Z,1025.19
2018-04-18T03:31:30.323Z,1025.13
2018-04-18T03:32:30.318Z,1025.20
2018-04-18T03:33:30.313Z,1025.16
2018-04-18T03:34:30.311Z,1025.16
2018-04-18T03:35:30.311Z,1025.18
2018-04-18T03:36:30.304Z,1025.20
2018-04-18T03:37:30.293Z,1025.24
2018-04-18T03:38:30.290Z,1025.19
2018-04-18T03:39:30.290Z,1025.23
2018-04-18T03:40:30.279Z,1025.25
2018-04-18T03:41:30.273Z,1025.20
2018-04-18T03:42:30.269Z,1025.26
2018-04-18T03:43:30.266Z,1025.25
2018-04-18T03:44:30.261Z,1025.24
2018-04-18T03:45:30.253Z,1025.29
2018-04-18T03:46:30.249Z,1025.28
2018-04-18T03:47:30.257Z,1025.32
2018-04-18T03:48:30.244Z,1025.29
2018-04-18T03:49:30.239Z,1025.29
2018-04-18T03:50:30.233Z,1025.32
2018-04-18T03:51:30.225Z,1025.32
2018-04-18T03:52:30.219Z,1025.28
2018-04-18T03:53:30.213Z,1025.27
2018-04-18T03:54:30.208Z,1025.29
2018-04-18T03:55:30.205Z,1025.32
2018-04-18T03:56:30.199Z,1025.34
2018-04-18T03:57:30.193Z,1025.35
2018-04-18T03:58:30.192Z,1025.34
2018-04-18T03:59:30.184Z,1025.30
2018-04-18T04:00:30.179Z,1025.29
2018-04-18T04:01:30.178Z,1025.30
2018-04-18T04:02:30.248Z,1025.31
2018-04-18T04:03:30.164Z,1025.28
2018-04-18T04:04:30.159Z,1025.29
2018-04-18T04:05:30.153Z,1025.29
2018-04-18T04:06:30.150Z,1025.28
2018-04-18T04:07:30.149Z,1025.31
2018-04-18T04:08:30.144Z,1025.31
2018-04-18T04:09:30.135Z,1025.34
2018-04-18T04:10:30.143Z,1025.32
2018-04-18T04:11:30.125Z,1025.35
2018-04-18T04:12:30.119Z,1025.37
2018-04-18T04:13:30.113Z,1025.36
2018-04-18T04:14:30.109Z,1025.39
2018-04-18T04:15:30.105Z,1025.38
2018-04-18T04:16:30.101Z,1025.40
2018-04-18T04:17:30.094Z,1025.39
2018-04-18T04:18:30.092Z,1025.47
2018-04-18T04:19:30.088Z,1025.37
2018-04-18T04:20:30.086Z,1025.42
2018-04-18T04:21:30.080Z,1025.42
2018-04-18T04:22:30.071Z,1025.43
2018-04-18T04:23:30.064Z,1025.41
2018-04-18T04:24:30.060Z,1025.44
2018-04-18T04:25:30.055Z,1025.49
2018-04-18T04:26:30.049Z,1025.48
2018-04-18T04:27:30.048Z,1025.48
2018-04-18T04:28:30.043Z,1025.48
2018-04-18T04:29:30.034Z,1025.49
2018-04-18T04:30:30.029Z,1025.50
2018-04-18T04:31:30.063Z,1025.49
2018-04-18T04:32:30.023Z,1025.47
2018-04-18T04:33:30.013Z,1025.49
2018-04-18T04:34:30.016Z,1025.53
2018-04-18T04:35:30.003Z,1025.54
2018-04-18T04:36:29.999Z,1025.53
2018-04-18T04:37:29.993Z,1025.52
2018-04-18T04:38:29.993Z,1025.50
2018-04-18T04:39:29.986Z,1025.52
2018-04-18T04:40:29.979Z,1025.55
2018-04-18T04:41:29.983Z,1025.56
2018-04-18T04:42:29.976Z,1025.51
2018-04-18T04:43:29.964Z,1025.56
2018-04-18T04:44:29.960Z,1025.60
2018-04-18T04:45:29.957Z,1025.55
2018-04-18T04:46:29.952Z,1025.56
2018-04-18T04:47:29.944Z,1025.62
2018-04-18T04:48:29.938Z,1025.65
2018-04-18T04:49:29.932Z,1025.64
2018-04-18T04:50:29.927Z,1025.64
2018-04-18T04:51:29.924Z,1025.67
2018-04-18T04:52:29.920Z,1025.69
2018-04-18T04:53:29.912Z,1025.74
2018-04-18T04:54:29.908Z,1025.75
2018-04-18T04:55:29.904Z,1025.74
2018-04-18T04:56:29.951Z,1025.75
2018-04-18T04:57:29.893Z,1025.78
2018-04-18T04:58:29.887Z,1025.71
2018-04-18T04:59:29.888Z,1025.79
2018-04-18T05:00:29.883Z,1025.74
2018-04-18T05:01:29.874Z,1025.79
2018-04-18T05:02:29.917Z,1025.82
2018-04-18T05:03:29.867Z,1025.79
2018-04-18T05:04:29.863Z,1025.88
2018-04-18T05:05:29.855Z,1025.99
2018-04-18T05:06:29.849Z,1026.05
2018-04-18T05:07:29.844Z,1026.10
2018-04-18T05:08:29.839Z,1026.10
2018-04-18T05:09:29.834Z,1026.14
2018-04-18T05:10:29.829Z,1026.19
2018-04-18T05:11:29.825Z,1026.20
2018-04-18T05:12:29.822Z,1026.29
2018-04-18T05:13:29.820Z,1026.30
2018-04-18T05:14:29.822Z,1026.35
2018-04-18T05:15:29.809Z,1026.33
2018-04-18T05:16:29.804Z,1026.39
2018-04-18T05:17:29.804Z,1026.39
2018-04-18T05:18:29.801Z,1026.32
2018-04-18T05:19:29.795Z,1026.44
2018-04-18T05:20:29.790Z,1026.43
2018-04-18T05:21:29.784Z,1026.46
2018-04-18T05:22:29.783Z,1026.47
2018-04-18T05:23:29.778Z,1026.47
2018-04-18T05:24:29.785Z,1026.53
2018-04-18T05:25:29.776Z,1026.59
2018-04-18T05:26:29.774Z,1026.59
2018-04-18T05:27:29.768Z,1026.65
2018-04-18T05:28:29.765Z,1026.68
2018-04-18T05:29:29.765Z,1026.70
2018-04-18T05:30:29.763Z,1026.72
2018-04-18T05:31:29.760Z,1026.78
2018-04-18T05:32:29.758Z,1026.78
2018-04-18T05:33:29.756Z,1026.81
2018-04-18T05:34:29.755Z,1026.82
2018-04-18T05:35:29.753Z,1026.88
2018-04-18T05:36:29.753Z,1026.93
2018-04-18T05:37:29.755Z,1026.92
2018-04-18T05:38:29.755Z,1026.94
2018-04-18T05:39:29.750Z,1027.03
2018-04-18T05:40:29.751Z,1027.03
2018-04-18T05:41:29.749Z,1027.11
2018-04-18T05:42:29.748Z,1027.12
2018-04-18T05:43:29.752Z,1027.18
2018-04-18T05:44:29.752Z,1027.16
2018-04-18T05:45:29.748Z,1027.19
2018-04-18T05:46:29.749Z,1027.27
2018-04-18T05:47:29.751Z,1027.29
2018-04-18T05:48:29.751Z,1027.30
2018-04-18T05:49:29.753Z,1027.34
2018-04-18T05:50:29.752Z,1027.37
2018-04-18T05:51:29.755Z,1027.38
2018-04-18T05:52:29.757Z,1027.38
2018-04-18T05:53:29.756Z,1027.42
2018-04-18T05:54:29.758Z,1027.47
2018-04-18T05:55:29.765Z,1027.46
2018-04-18T05:56:29.767Z,1027.52
2018-04-18T05:57:29.768Z,1027.47
2018-04-18T05:58:29.771Z,1027.51
2018-04-18T05:59:29.770Z,1027.56
2018-04-18T06:00:29.773Z,1027.52
2018-04-18T06:01:29.775Z,1027.58
2018-04-18T06:02:29.781Z,1027.57
2018-04-18T06:03:29.783Z,1027.60
2018-04-18T06:04:29.786Z,1027.61
2018-04-18T06:05:29.788Z,1027.66
2018-04-18T06:06:29.791Z,1027.65
2018-04-18T06:07:29.797Z,1027.70
2018-04-18T06:08:29.800Z,1027.69
2018-04-18T06:09:29.807Z,1027.75
2018-04-18T06:10:29.812Z,1027.79
2018-04-18T06:11:29.812Z,1027.80
2018-04-18T06:12:29.816Z,1027.83
2018-04-18T06:13:29.820Z,1027.80
2018-04-18T06:14:29.825Z,1027.84
2018-04-18T06:15:29.835Z,1027.87
2018-04-18T06:16:29.839Z,1027.86
2018-04-18T06:17:29.840Z,1027.90
2018-04-18T06:18:29.846Z,1027.93
2018-04-18T06:19:29.851Z,1027.97
2018-04-18T06:20:29.856Z,1027.96
2018-04-18T06:21:29.861Z,1028.00
2018-04-18T06:22:29.867Z,1028.03
2018-04-18T06:23:29.872Z,1028.04
2018-04-18T06:24:29.880Z,1028.07
2018-04-18T06:25:29.884Z,1028.08
2018-04-18T06:26:29.891Z,1028.15
2018-04-18T06:27:29.900Z,1028.14
2018-04-18T06:28:29.908Z,1028.19
2018-04-18T06:29:29.909Z,1028.19
2018-04-18T06:30:29.915Z,1028.25
2018-04-18T06:31:29.922Z,1028.23
2018-04-18T06:32:29.928Z,1028.30
2018-04-18T06:33:29.940Z,1028.31
2018-04-18T06:34:29.946Z,1028.26
2018-04-18T06:35:29.949Z,1028.27
2018-04-18T06:36:29.957Z,1028.31
2018-04-18T06:37:29.966Z,1028.30
2018-04-18T06:38:29.975Z,1028.35
2018-04-18T06:39:29.982Z,1028.34
2018-04-18T06:40:29.985Z,1028.34
2018-04-18T06:41:29.993Z,1028.37
2018-04-18T06:42:30.002Z,1028.38
2018-04-18T06:43:30.010Z,1028.37
2018-04-18T06:44:30.022Z,1028.41
2018-04-18T06:45:30.026Z,1028.42
2018-04-18T06:46:30.033Z,1028.42
2018-04-18T06:47:30.042Z,1028.48
2018-04-18T06:48:30.050Z,1028.48
2018-04-18T06:49:30.057Z,1028.57
2018-04-18T06:50:30.071Z,1028.57
2018-04-18T06:51:30.080Z,1028.58
2018-04-18T06:52:30.090Z,1028.57
2018-04-18T06:53:30.095Z,1028.63
2018-04-18T06:54:30.104Z,1028.61
2018-04-18T06:55:30.117Z,1028.67
2018-04-18T06:56:30.127Z,1028.68
2018-04-18T06:57:30.132Z,1028.66
2018-04-18T06:58:30.142Z,1028.67
2018-04-18T06:59:30.151Z,1027.75
2018-04-18T07:00:30.163Z,1027.72
2018-04-18T07:01:30.171Z,1027.72
2018-04-18T07:02:30.183Z,1027.73
2018-04-18T07:03:30.193Z,1027.75
2018-04-18T07:04:30.202Z,1027.73
2018-04-18T07:05:30.216Z,1027.73
2018-04-18T07:06:30.232Z,1027.78
2018-04-18T07:07:30.235Z,1027.81
2018-04-18T07:08:30.248Z,1027.81
2018-04-18T07:09:30.259Z,1027.81
2018-04-18T07:10:30.269Z,1027.81
2018-04-18T07:11:30.276Z,1027.82
2018-04-18T07:12:30.288Z,1027.86
2018-04-18T07:13:30.298Z,1027.90
2018-04-18T07:14:30.312Z,1027.94
2018-04-18T07:15:30.320Z,1027.93
2018-04-18T07:16:30.332Z,1027.92
2018-04-18T07:17:30.344Z,1027.92
2018-04-18T07:18:30.354Z,1027.94
2018-04-18T07:19:30.367Z,1027.93
2018-04-18T07:20:30.379Z,1027.93
2018-04-18T07:21:30.388Z,1027.95
2018-04-18T07:22:30.401Z,1027.96
2018-04-18T07:23:30.416Z,1027.98
2018-04-18T07:24:30.430Z,1027.98
2018-04-18T07:25:30.435Z,1027.94
2018-04-18T07:26:30.447Z,1027.92
2018-04-18T07:27:30.464Z,1027.98
2018-04-18T07:28:30.477Z,1027.95
2018-04-18T07:29:30.483Z,1027.94
2018-04-18T07:30:30.500Z,1027.94
2018-04-18T07:31:30.507Z,1027.96
2018-04-18T07:32:30.520Z,1027.97
2018-04-18T07:33:30.532Z,1027.97
2018-04-18T07:34:30.545Z,1028.01
2018-04-18T07:35:30.561Z,1027.99
2018-04-18T07:36:30.575Z,1027.97
2018-04-18T07:37:30.582Z,1028.02
2018-04-18T07:38:30.595Z,1028.03
2018-04-18T07:39:30.609Z,1028.02
2018-04-18T07:40:30.623Z,1028.06
2018-04-18T07:41:30.639Z,1028.05
2018-04-18T07:42:30.652Z,1028.02
2018-04-18T07:43:30.663Z,1028.06
2018-04-18T07:44:30.676Z,1028.06
2018-04-18T07:45:30.689Z,1028.06
2018-04-18T07:46:30.703Z,1028.10
2018-04-18T07:47:30.721Z,1028.08
2018-04-18T07:48:30.736Z,1028.10
2018-04-18T07:49:30.749Z,1028.12
2018-04-18T07:50:30.765Z,1028.05
2018-04-18T07:51:30.774Z,1028.06
2018-04-18T07:52:30.790Z,1028.10
2018-04-18T07:53:30.803Z,1028.12
2018-04-18T07:54:30.818Z,1028.15
2018-04-18T07:55:30.834Z,1028.14
2018-04-18T07:56:30.849Z,1028.15
2018-04-18T07:57:30.863Z,1028.24
2018-04-18T07:58:30.877Z,1028.23
2018-04-18T07:59:30.893Z,1028.22
2018-04-18T08:00:30.909Z,1028.20
2018-04-18T08:01:30.927Z,1028.21
2018-04-18T08:02:30.943Z,1028.25
2018-04-18T08:03:30.956Z,1028.25
2018-04-18T08:04:30.971Z,1028.26
2018-04-18T08:05:30.985Z,1028.23
2018-04-18T08:06:31.001Z,1028.20
2018-04-18T08:07:31.022Z,1028.25
2018-04-18T08:08:31.070Z,1028.25
2018-04-18T08:09:31.050Z,1028.26
2018-04-18T08:10:31.067Z,1028.28
2018-04-18T08:11:31.081Z,1028.31
2018-04-18T08:12:31.099Z,1028.34
2018-04-18T08:13:31.114Z,1028.33
2018-04-18T08:14:31.130Z,1028.32
2018-04-18T08:15:31.203Z,1028.38
2018-04-18T08:16:31.165Z,1028.31
2018-04-18T08:17:31.180Z,1028.31
2018-04-18T08:18:31.197Z,1028.34
2018-04-18T08:19:31.219Z,1028.28
2018-04-18T08:20:31.235Z,1028.31
2018-04-18T08:21:31.252Z,1028.31
2018-04-18T08:22:31.268Z,1028.33
2018-04-18T08:23:31.281Z,1028.33
2018-04-18T08:24:31.298Z,1028.35
2018-04-18T08:25:31.315Z,1028.39
2018-04-18T08:26:31.333Z,1028.38
2018-04-18T08:27:31.350Z,1028.38
2018-04-18T08:28:31.371Z,1028.41
2018-04-18T08:29:31.383Z,1028.36
2018-04-18T08:30:31.400Z,1028.38
2018-04-18T08:31:31.418Z,1028.40
2018-04-18T08:32:31.435Z,1028.39
2018-04-18T08:33:31.456Z,1028.39
2018-04-18T08:34:31.473Z,1028.39
2018-04-18T08:35:31.486Z,1028.39
2018-04-18T08:36:31.504Z,1028.41
2018-04-18T08:37:31.522Z,1028.41
2018-04-18T08:38:31.542Z,1028.39
2018-04-18T08:39:31.556Z,1028.37
2018-04-18T08:40:31.575Z,1028.42
2018-04-18T08:41:31.594Z,1028.40
2018-04-18T08:42:31.612Z,1028.40
2018-04-18T08:43:31.626Z,1028.44
2018-04-18T08:44:31.643Z,1028.44
2018-04-18T08:45:31.665Z,1028.44
2018-04-18T08:46:31.684Z,1028.45
2018-04-18T08:47:31.699Z,1028.44
2018-04-18T08:48:31.716Z,1028.42
2018-04-18T08:49:31.733Z,1028.45
2018-04-18T08:50:31.753Z,1028.45
2018-04-18T08:51:31.772Z,1028.47
2018-04-18T08:52:31.793Z,1028.44
2018-04-18T08:53:31.810Z,1028.44
2018-04-18T08:54:31.827Z,1028.46
2018-04-18T08:55:31.847Z,1028.46
2018-04-18T08:56:31.868Z,1028.49
2018-04-18T08:57:31.884Z,1028.49
2018-04-18T08:58:31.904Z,1028.47
2018-04-18T08:59:31.926Z,1028.47
2018-04-18T09:00:31.944Z,1028.49
2018-04-18T09:01:31.959Z,1028.49
2018-04-18T09:02:31.978Z,1028.44
2018-04-18T09:03:32.003Z,1028.44
2018-04-18T09:04:32.021Z,1028.49
2018-04-18T09:05:32.036Z,1028.45
2018-04-18T09:06:32.055Z,1028.40
2018-04-18T09:07:32.074Z,1028.35
2018-04-18T09:08:32.095Z,1028.26
2018-04-18T09:09:32.114Z,1028.28
2018-04-18T09:10:32.131Z,1028.24
2018-04-18T09:11:32.153Z,1028.19
2018-04-18T09:12:32.171Z,1028.22
2018-04-18T09:13:32.193Z,1028.22
2018-04-18T09:14:32.213Z,1028.21
2018-04-18T09:15:32.228Z,1028.17
2018-04-18T09:16:32.248Z,1028.28
2018-04-18T09:17:32.269Z,1028.19
2018-04-18T09:18:32.290Z,1028.22
2018-04-18T09:19:32.303Z,1028.28
2018-04-18T09:20:32.323Z,1028.32
2018-04-18T09:21:32.341Z,1028.31
2018-04-18T09:22:32.360Z,1028.36
2018-04-18T09:23:32.378Z,1028.38
2018-04-18T09:24:32.398Z,1028.38
2018-04-18T09:25:32.417Z,1028.37
2018-04-18T09:26:32.435Z,1028.41
2018-04-18T09:27:32.455Z,1028.45
2018-04-18T09:28:32.520Z,1028.46
2018-04-18T09:29:32.492Z,1028.49
2018-04-18T09:30:32.512Z,1028.57
2018-04-18T09:31:32.536Z,1028.58
2018-04-18T09:32:32.555Z,1028.65
2018-04-18T09:33:32.570Z,1028.71
2018-04-18T09:34:32.591Z,1028.72
2018-04-18T09:35:32.615Z,1028.61
2018-04-18T09:36:32.634Z,1028.31
2018-04-18T09:37:32.649Z,1028.30
2018-04-18T09:38:32.670Z,1028.26
2018-04-18T09:39:32.692Z,1028.26
2018-04-18T09:40:32.710Z,1028.26
2018-04-18T09:41:32.730Z,1028.28
2018-04-18T09:42:32.751Z,1028.27
2018-04-18T09:43:32.775Z,1028.26
2018-04-18T09:44:32.795Z,1028.26
2018-04-18T09:45:32.815Z,1028.28
2018-04-18T09:46:32.839Z,1028.36
2018-04-18T09:47:32.853Z,1028.40
2018-04-18T09:48:32.873Z,1028.35
2018-04-18T09:49:32.893Z,1028.38
2018-04-18T09:50:32.912Z,1028.34
2018-04-18T09:51:32.939Z,1028.35
2018-04-18T09:52:32.954Z,1028.38
2018-04-18T09:53:32.972Z,1028.38
2018-04-18T09:54:32.996Z,1028.30
2018-04-18T09:55:33.023Z,1028.24
2018-04-18T09:56:33.039Z,1028.17
2018-04-18T09:57:33.058Z,1028.16
2018-04-18T09:58:33.143Z,1028.15
2018-04-18T09:59:33.095Z,1028.16
2018-04-18T10:00:33.116Z,1028.15
2018-04-18T10:01:33.136Z,1028.20
2018-04-18T10:02:33.154Z,1028.15
2018-04-18T10:03:33.211Z,1028.16
2018-04-18T10:04:33.196Z,1028.13
2018-04-18T10:05:33.216Z,1028.15
2018-04-18T10:06:33.237Z,1028.13
2018-04-18T10:07:33.257Z,1028.08
2018-04-18T10:08:33.277Z,1028.13
2018-04-18T10:09:33.301Z,1028.06
2018-04-18T10:10:33.322Z,1028.06
2018-04-18T10:11:33.339Z,1028.10
2018-04-18T10:12:33.360Z,1028.05
2018-04-18T10:13:33.380Z,1028.05
2018-04-18T10:14:33.402Z,1028.06
2018-04-18T10:15:33.466Z,1028.05
2018-04-18T10:16:33.446Z,1028.05
2018-04-18T10:17:33.465Z,1028.07
2018-04-18T10:18:33.483Z,1028.06
2018-04-18T10:19:33.507Z,1028.10
2018-04-18T10:20:33.524Z,1028.03
2018-04-18T10:21:33.545Z,1028.03
2018-04-18T10:22:33.566Z,1028.05
2018-04-18T10:23:33.590Z,1028.01
2018-04-18T10:24:33.606Z,1028.01
2018-04-18T10:25:33.626Z,1027.98
2018-04-18T10:26:33.647Z,1027.95
2018-04-18T10:27:33.671Z,1027.91
2018-04-18T10:28:33.696Z,1027.92
2018-04-18T10:29:33.712Z,1027.90
2018-04-18T10:30:33.732Z,1027.86
2018-04-18T10:31:33.759Z,1027.85
2018-04-18T10:32:33.769Z,1027.85
2018-04-18T10:33:33.790Z,1027.82
2018-04-18T10:34:33.826Z,1027.80
2018-04-18T10:35:33.830Z,1027.82
2018-04-18T10:36:33.852Z,1027.84
2018-04-18T10:37:33.871Z,1027.83
2018-04-18T10:38:33.891Z,1027.83
2018-04-18T10:39:33.913Z,1027.76
2018-04-18T10:40:33.933Z,1027.85
2018-04-18T10:41:33.957Z,1027.86
2018-04-18T10:42:33.976Z,1027.89
2018-04-18T10:43:33.992Z,1027.83
2018-04-18T10:44:34.012Z,1027.82
2018-04-18T10:45:34.031Z,1027.87
2018-04-18T10:46:34.052Z,1027.80
2018-04-18T10:47:34.076Z,1027.77
2018-04-18T10:48:34.097Z,1027.70
2018-04-18T10:49:34.111Z,1027.75
2018-04-18T10:50:34.128Z,1027.74
2018-04-18T10:51:34.148Z,1027.70
2018-04-18T10:52:34.167Z,1027.68
2018-04-18T10:53:34.186Z,1027.69
2018-04-18T10:54:34.203Z,1027.73
2018-04-18T10:55:34.222Z,1027.65
2018-04-18T10:56:34.241Z,1027.70
2018-04-18T10:57:34.259Z,1027.70
2018-04-18T10:58:34.346Z,1027.70
2018-04-18T10:59:34.298Z,1027.70
2018-04-18T11:00:34.316Z,1027.72
2018-04-18T11:01:34.333Z,1027.70
2018-04-18T11:02:34.353Z,1027.68
2018-04-18T11:03:34.367Z,1027.65
2018-04-18T11:04:34.385Z,1027.63
2018-04-18T11:05:34.403Z,1027.62
2018-04-18T11:06:34.421Z,1027.58
2018-04-18T11:07:34.438Z,1027.59
2018-04-18T11:08:34.457Z,1027.57
2018-04-18T11:09:34.476Z,1027.56
2018-04-18T11:10:34.493Z,1027.60
2018-04-18T11:11:34.510Z,1027.55
2018-04-18T11:12:34.529Z,1027.55
2018-04-18T11:13:34.555Z,1027.62
2018-04-18T11:14:34.568Z,1027.56
2018-04-18T11:15:34.582Z,1027.62
2018-04-18T11:16:34.599Z,1027.47
2018-04-18T11:17:34.616Z,1027.53
2018-04-18T11:18:34.634Z,1027.48
2018-04-18T11:19:34.656Z,1027.47
2018-04-18T11:20:34.673Z,1027.44
2018-04-18T11:21:34.685Z,1027.38
2018-04-18T11:22:34.703Z,1027.28
2018-04-18T11:23:34.719Z,1027.23
2018-04-18T11:24:34.737Z,1027.19
2018-04-18T11:25:34.751Z,1027.27
2018-04-18T11:26:34.769Z,1027.16
2018-04-18T11:27:34.784Z,1027.09
2018-04-18T11:28:34.799Z,1027.10
2018-04-18T11:29:34.811Z,1027.03
2018-04-18T11:30:34.826Z,1026.99
2018-04-18T11:31:34.852Z,1027.00
2018-04-18T11:32:34.860Z,1026.91
2018-04-18T11:33:34.873Z,1026.90
2018-04-18T11:34:34.886Z,1026.90
2018-04-18T11:35:34.897Z,1026.89
2018-04-18T11:36:34.910Z,1026.95
2018-04-18T11:37:34.920Z,1026.89
2018-04-18T11:38:34.931Z,1026.91
2018-04-18T11:39:34.944Z,1026.87
2018-04-18T11:40:34.956Z,1026.85
2018-04-18T11:41:34.970Z,1026.81
2018-04-18T11:42:34.980Z,1026.75
2018-04-18T11:43:34.988Z,1026.76
2018-04-18T11:44:35.000Z,1026.78
2018-04-18T11:45:35.017Z,1026.74
2018-04-18T11:46:35.023Z,1026.74
2018-04-18T11:47:35.032Z,1026.72
2018-04-18T11:48:35.044Z,1026.71
2018-04-18T11:49:35.048Z,1026.66
2018-04-18T11:50:35.057Z,1026.68
2018-04-18T11:51:35.068Z,1026.69
2018-04-18T11:52:35.080Z,1026.73
2018-04-18T11:53:35.089Z,1026.70
2018-04-18T11:54:35.097Z,1026.65
2018-04-18T11:55:35.103Z,1026.65
2018-04-18T11:56:35.114Z,1026.65
2018-04-18T11:57:35.134Z,1026.65
2018-04-18T11:58:35.131Z,1026.58
2018-04-18T11:59:35.137Z,1026.62
2018-04-18T12:00:35.145Z,1026.59
2018-04-18T12:01:35.160Z,1026.59
2018-04-18T12:02:35.161Z,1026.59
2018-04-18T12:03:35.168Z,1026.55
2018-04-18T12:04:35.177Z,1026.59
2018-04-18T12:05:35.185Z,1026.57